sensor_id;sensor_type;location;lat;lon;timestamp;temperature;humidity
12893;DHT22;6514;48.606;9.222;2023-04-27T00:01:10;7.00;99.90
12893;DHT22;6514;48.606;9.222;2023-04-27T00:03:37;7.00;99.90
12893;DHT22;6514;48.606;9.222;2023-04-27T00:06:05;7.00;99.90
12893;DHT22;6514;48.606;9.222;2023-04-27T00:08:32;7.00;99.90
12893;DHT22;6514;48.606;9.222;2023-04-27T00:11:01;7.00;99.90
12893;DHT22;6514;48.606;9.222;2023-04-27T00:13:28;6.90;99.90
12893;DHT22;6514;48.606;9.222;2023-04-27T00:15:55;6.90;99.90
12893;DHT22;6514;48.606;9.222;2023-04-27T00:18:21;6.90;99.90
12893;DHT22;6514;48.606;9.222;2023-04-27T00:20:48;6.90;99.90
12893;DHT22;6514;48.606;9.222;2023-04-27T00:23:15;6.90;99.90
12893;DHT22;6514;48.606;9.222;2023-04-27T00:25:42;6.90;99.90
12893;DHT22;6514;48.606;9.222;2023-04-27T00:28:10;6.90;99.90
12893;DHT22;6514;48.606;9.222;2023-04-27T00:30:37;6.90;99.90
12893;DHT22;6514;48.606;9.222;2023-04-27T00:33:04;6.90;99.90
12893;DHT22;6514;48.606;9.222;2023-04-27T00:35:31;6.90;99.90
12893;DHT22;6514;48.606;9.222;2023-04-27T00:37:58;6.90;99.90
12893;DHT22;6514;48.606;9.222;2023-04-27T00:40:25;6.80;99.90
12893;DHT22;6514;48.606;9.222;2023-04-27T00:42:52;6.80;99.90
12893;DHT22;6514;48.606;9.222;2023-04-27T00:45:20;6.80;99.90
12893;DHT22;6514;48.606;9.222;2023-04-27T00:47:47;6.80;99.90
12893;DHT22;6514;48.606;9.222;2023-04-27T00:50:15;6.80;99.90
12893;DHT22;6514;48.606;9.222;2023-04-27T00:52:44;6.80;99.90
12893;DHT22;6514;48.606;9.222;2023-04-27T00:55:11;6.70;99.90
12893;DHT22;6514;48.606;9.222;2023-04-27T00:57:38;6.70;99.90
12893;DHT22;6514;48.606;9.222;2023-04-27T01:00:06;6.70;99.90
12893;DHT22;6514;48.606;9.222;2023-04-27T01:02:36;6.70;99.90
12893;DHT22;6514;48.606;9.222;2023-04-27T01:05:04;6.70;99.90
12893;DHT22;6514;48.606;9.222;2023-04-27T01:07:36;6.70;99.90
12893;DHT22;6514;48.606;9.222;2023-04-27T01:10:03;6.70;99.90
12893;DHT22;6514;48.606;9.222;2023-04-27T01:12:30;6.70;99.90
12893;DHT22;6514;48.606;9.222;2023-04-27T01:14:57;6.70;99.90
12893;DHT22;6514;48.606;9.222;2023-04-27T01:17:24;6.60;99.90
12893;DHT22;6514;48.606;9.222;2023-04-27T01:19:52;6.60;99.90
12893;DHT22;6514;48.606;9.222;2023-04-27T01:22:21;6.60;99.90
12893;DHT22;6514;48.606;9.222;2023-04-27T01:24:49;6.60;99.90
12893;DHT22;6514;48.606;9.222;2023-04-27T01:27:16;6.60;99.90
12893;DHT22;6514;48.606;9.222;2023-04-27T01:29:43;6.60;99.90
12893;DHT22;6514;48.606;9.222;2023-04-27T01:32:10;6.60;99.90
12893;DHT22;6514;48.606;9.222;2023-04-27T01:34:37;6.60;99.90
12893;DHT22;6514;48.606;9.222;2023-04-27T01:37:04;6.60;99.90
12893;DHT22;6514;48.606;9.222;2023-04-27T01:39:31;6.60;99.90
12893;DHT22;6514;48.606;9.222;2023-04-27T01:41:59;6.60;99.90
12893;DHT22;6514;48.606;9.222;2023-04-27T01:44:27;6.60;99.90
12893;DHT22;6514;48.606;9.222;2023-04-27T01:46:54;6.60;99.90
12893;DHT22;6514;48.606;9.222;2023-04-27T01:49:20;6.60;99.90
12893;DHT22;6514;48.606;9.222;2023-04-27T01:51:47;6.50;99.90
12893;DHT22;6514;48.606;9.222;2023-04-27T01:54:14;6.50;99.90
12893;DHT22;6514;48.606;9.222;2023-04-27T01:56:41;6.50;99.90
12893;DHT22;6514;48.606;9.222;2023-04-27T01:59:09;6.40;99.90
12893;DHT22;6514;48.606;9.222;2023-04-27T02:01:36;6.50;99.90
12893;DHT22;6514;48.606;9.222;2023-04-27T02:04:03;6.30;99.90
12893;DHT22;6514;48.606;9.222;2023-04-27T02:06:29;6.30;99.90
12893;DHT22;6514;48.606;9.222;2023-04-27T02:08:56;6.30;99.90
12893;DHT22;6514;48.606;9.222;2023-04-27T02:11:23;6.20;99.90
12893;DHT22;6514;48.606;9.222;2023-04-27T02:13:51;6.20;99.90
12893;DHT22;6514;48.606;9.222;2023-04-27T02:16:19;6.20;99.90
12893;DHT22;6514;48.606;9.222;2023-04-27T02:18:46;6.10;99.90
12893;DHT22;6514;48.606;9.222;2023-04-27T02:21:13;6.10;99.90
12893;DHT22;6514;48.606;9.222;2023-04-27T02:23:40;6.10;99.90
12893;DHT22;6514;48.606;9.222;2023-04-27T02:26:07;6.10;99.90
12893;DHT22;6514;48.606;9.222;2023-04-27T02:28:42;6.10;99.90
12893;DHT22;6514;48.606;9.222;2023-04-27T02:31:08;6.10;99.90
12893;DHT22;6514;48.606;9.222;2023-04-27T02:33:37;6.10;99.90
12893;DHT22;6514;48.606;9.222;2023-04-27T02:36:05;6.10;99.90
12893;DHT22;6514;48.606;9.222;2023-04-27T02:38:32;6.10;99.90
12893;DHT22;6514;48.606;9.222;2023-04-27T02:40:59;6.10;99.90
12893;DHT22;6514;48.606;9.222;2023-04-27T02:43:26;6.10;99.90
12893;DHT22;6514;48.606;9.222;2023-04-27T02:45:52;6.10;99.90
12893;DHT22;6514;48.606;9.222;2023-04-27T02:48:19;6.10;99.90
12893;DHT22;6514;48.606;9.222;2023-04-27T02:50:48;6.10;99.90
12893;DHT22;6514;48.606;9.222;2023-04-27T02:53:14;6.10;99.90
12893;DHT22;6514;48.606;9.222;2023-04-27T02:55:44;6.10;99.90
12893;DHT22;6514;48.606;9.222;2023-04-27T02:58:12;6.10;99.90
12893;DHT22;6514;48.606;9.222;2023-04-27T03:00:39;6.10;99.90
12893;DHT22;6514;48.606;9.222;2023-04-27T03:03:06;6.10;99.90
12893;DHT22;6514;48.606;9.222;2023-04-27T03:05:34;6.20;99.90
12893;DHT22;6514;48.606;9.222;2023-04-27T03:08:03;6.20;99.90
12893;DHT22;6514;48.606;9.222;2023-04-27T03:10:30;6.20;99.90
12893;DHT22;6514;48.606;9.222;2023-04-27T03:12:57;6.20;99.90
12893;DHT22;6514;48.606;9.222;2023-04-27T03:15:24;6.20;99.90
12893;DHT22;6514;48.606;9.222;2023-04-27T03:17:51;6.30;99.90
12893;DHT22;6514;48.606;9.222;2023-04-27T03:20:18;6.30;99.90
12893;DHT22;6514;48.606;9.222;2023-04-27T03:22:45;6.30;99.90
12893;DHT22;6514;48.606;9.222;2023-04-27T03:25:13;6.30;99.90
12893;DHT22;6514;48.606;9.222;2023-04-27T03:27:40;6.40;99.90
12893;DHT22;6514;48.606;9.222;2023-04-27T03:30:09;6.40;99.90
12893;DHT22;6514;48.606;9.222;2023-04-27T03:32:36;6.40;99.90
12893;DHT22;6514;48.606;9.222;2023-04-27T03:35:04;6.40;99.90
12893;DHT22;6514;48.606;9.222;2023-04-27T03:37:31;6.40;99.90
12893;DHT22;6514;48.606;9.222;2023-04-27T03:39:58;6.40;99.90
12893;DHT22;6514;48.606;9.222;2023-04-27T03:42:27;6.40;99.90
12893;DHT22;6514;48.606;9.222;2023-04-27T03:44:54;6.40;99.90
12893;DHT22;6514;48.606;9.222;2023-04-27T03:47:21;6.40;99.90
12893;DHT22;6514;48.606;9.222;2023-04-27T03:49:47;6.40;99.90
12893;DHT22;6514;48.606;9.222;2023-04-27T03:52:14;6.40;99.90
12893;DHT22;6514;48.606;9.222;2023-04-27T03:54:41;6.50;99.90
12893;DHT22;6514;48.606;9.222;2023-04-27T03:57:08;6.40;99.90
12893;DHT22;6514;48.606;9.222;2023-04-27T03:59:36;6.40;99.90
12893;DHT22;6514;48.606;9.222;2023-04-27T04:02:03;6.40;99.90
12893;DHT22;6514;48.606;9.222;2023-04-27T04:04:31;6.40;99.90
12893;DHT22;6514;48.606;9.222;2023-04-27T04:06:57;6.40;99.90
12893;DHT22;6514;48.606;9.222;2023-04-27T04:09:24;6.40;99.90
12893;DHT22;6514;48.606;9.222;2023-04-27T04:11:51;6.40;99.90
12893;DHT22;6514;48.606;9.222;2023-04-27T04:14:18;6.40;99.90
12893;DHT22;6514;48.606;9.222;2023-04-27T04:16:46;6.40;99.90
12893;DHT22;6514;48.606;9.222;2023-04-27T04:19:13;6.40;99.90
12893;DHT22;6514;48.606;9.222;2023-04-27T04:21:40;6.40;99.90
12893;DHT22;6514;48.606;9.222;2023-04-27T04:24:07;6.40;99.90
12893;DHT22;6514;48.606;9.222;2023-04-27T04:26:34;6.40;99.90
12893;DHT22;6514;48.606;9.222;2023-04-27T04:29:01;6.40;99.90
12893;DHT22;6514;48.606;9.222;2023-04-27T04:31:29;6.40;99.90
12893;DHT22;6514;48.606;9.222;2023-04-27T04:33:59;6.50;99.90
12893;DHT22;6514;48.606;9.222;2023-04-27T04:36:26;6.50;99.90
12893;DHT22;6514;48.606;9.222;2023-04-27T04:38:53;6.50;99.90
12893;DHT22;6514;48.606;9.222;2023-04-27T04:41:21;6.50;99.90
12893;DHT22;6514;48.606;9.222;2023-04-27T04:43:49;6.50;99.90
12893;DHT22;6514;48.606;9.222;2023-04-27T04:46:16;6.50;99.90
12893;DHT22;6514;48.606;9.222;2023-04-27T04:48:44;6.50;99.90
12893;DHT22;6514;48.606;9.222;2023-04-27T04:51:12;6.60;99.90
12893;DHT22;6514;48.606;9.222;2023-04-27T04:53:39;6.60;99.90
12893;DHT22;6514;48.606;9.222;2023-04-27T04:56:10;6.60;99.90
12893;DHT22;6514;48.606;9.222;2023-04-27T04:58:37;6.70;99.90
12893;DHT22;6514;48.606;9.222;2023-04-27T05:01:04;6.70;99.90
12893;DHT22;6514;48.606;9.222;2023-04-27T05:03:31;6.80;99.90
12893;DHT22;6514;48.606;9.222;2023-04-27T05:05:57;6.90;99.90
12893;DHT22;6514;48.606;9.222;2023-04-27T05:08:26;7.00;99.90
12893;DHT22;6514;48.606;9.222;2023-04-27T05:10:53;7.00;99.90
12893;DHT22;6514;48.606;9.222;2023-04-27T05:13:20;7.10;99.90
12893;DHT22;6514;48.606;9.222;2023-04-27T05:15:49;7.20;99.90
12893;DHT22;6514;48.606;9.222;2023-04-27T05:18:16;7.30;99.90
12893;DHT22;6514;48.606;9.222;2023-04-27T05:20:43;7.40;99.90
12893;DHT22;6514;48.606;9.222;2023-04-27T05:23:09;7.40;99.90
12893;DHT22;6514;48.606;9.222;2023-04-27T05:25:38;7.50;99.90
12893;DHT22;6514;48.606;9.222;2023-04-27T05:28:07;7.60;99.90
12893;DHT22;6514;48.606;9.222;2023-04-27T05:30:34;7.70;99.90
12893;DHT22;6514;48.606;9.222;2023-04-27T05:33:01;7.30;99.90
12893;DHT22;6514;48.606;9.222;2023-04-27T05:35:28;7.90;99.90
12893;DHT22;6514;48.606;9.222;2023-04-27T05:37:55;8.00;99.90
12893;DHT22;6514;48.606;9.222;2023-04-27T05:40:22;8.20;99.90
12893;DHT22;6514;48.606;9.222;2023-04-27T05:42:50;8.30;99.90
12893;DHT22;6514;48.606;9.222;2023-04-27T05:45:17;8.40;99.90
12893;DHT22;6514;48.606;9.222;2023-04-27T05:47:44;8.50;99.90
12893;DHT22;6514;48.606;9.222;2023-04-27T05:50:11;8.60;99.90
12893;DHT22;6514;48.606;9.222;2023-04-27T05:52:38;8.80;99.90
12893;DHT22;6514;48.606;9.222;2023-04-27T05:55:06;8.90;99.90
12893;DHT22;6514;48.606;9.222;2023-04-27T05:57:33;9.00;99.90
12893;DHT22;6514;48.606;9.222;2023-04-27T06:00:01;9.20;99.90
12893;DHT22;6514;48.606;9.222;2023-04-27T06:02:32;9.30;99.90
12893;DHT22;6514;48.606;9.222;2023-04-27T06:04:59;9.60;99.90
12893;DHT22;6514;48.606;9.222;2023-04-27T06:07:26;9.70;99.90
12893;DHT22;6514;48.606;9.222;2023-04-27T06:09:53;9.90;99.90
12893;DHT22;6514;48.606;9.222;2023-04-27T06:12:20;10.00;99.90
12893;DHT22;6514;48.606;9.222;2023-04-27T06:14:47;10.20;99.90
12893;DHT22;6514;48.606;9.222;2023-04-27T06:17:15;10.30;99.90
12893;DHT22;6514;48.606;9.222;2023-04-27T06:19:43;10.40;99.90
12893;DHT22;6514;48.606;9.222;2023-04-27T06:22:10;10.50;99.90
12893;DHT22;6514;48.606;9.222;2023-04-27T06:24:37;10.60;99.90
12893;DHT22;6514;48.606;9.222;2023-04-27T06:27:04;10.80;99.90
12893;DHT22;6514;48.606;9.222;2023-04-27T06:29:31;11.00;99.90
12893;DHT22;6514;48.606;9.222;2023-04-27T06:31:58;11.20;99.90
12893;DHT22;6514;48.606;9.222;2023-04-27T06:34:27;11.30;99.90
12893;DHT22;6514;48.606;9.222;2023-04-27T06:36:54;11.40;99.90
12893;DHT22;6514;48.606;9.222;2023-04-27T06:39:21;11.50;99.90
12893;DHT22;6514;48.606;9.222;2023-04-27T06:41:48;11.70;99.90
12893;DHT22;6514;48.606;9.222;2023-04-27T06:44:14;11.80;99.90
12893;DHT22;6514;48.606;9.222;2023-04-27T06:46:41;12.00;99.90
12893;DHT22;6514;48.606;9.222;2023-04-27T06:49:08;12.20;99.90
12893;DHT22;6514;48.606;9.222;2023-04-27T06:51:36;12.30;99.90
12893;DHT22;6514;48.606;9.222;2023-04-27T06:54:04;12.40;99.90
12893;DHT22;6514;48.606;9.222;2023-04-27T06:56:31;12.60;99.90
12893;DHT22;6514;48.606;9.222;2023-04-27T06:58:57;12.80;99.90
12893;DHT22;6514;48.606;9.222;2023-04-27T07:01:24;12.90;99.90
12893;DHT22;6514;48.606;9.222;2023-04-27T07:03:51;13.10;99.90
12893;DHT22;6514;48.606;9.222;2023-04-27T07:06:18;13.30;99.90
12893;DHT22;6514;48.606;9.222;2023-04-27T07:08:48;13.40;99.90
12893;DHT22;6514;48.606;9.222;2023-04-27T07:11:14;13.60;99.90
12893;DHT22;6514;48.606;9.222;2023-04-27T07:13:42;13.70;99.90
12893;DHT22;6514;48.606;9.222;2023-04-27T07:16:08;14.00;99.90
12893;DHT22;6514;48.606;9.222;2023-04-27T07:18:35;14.00;99.90
12893;DHT22;6514;48.606;9.222;2023-04-27T07:21:02;14.20;99.90
12893;DHT22;6514;48.606;9.222;2023-04-27T07:23:29;14.30;99.90
12893;DHT22;6514;48.606;9.222;2023-04-27T07:25:58;14.60;99.90
12893;DHT22;6514;48.606;9.222;2023-04-27T07:28:27;14.70;99.90
12893;DHT22;6514;48.606;9.222;2023-04-27T07:30:54;14.90;99.90
12893;DHT22;6514;48.606;9.222;2023-04-27T07:33:22;15.20;99.90
12893;DHT22;6514;48.606;9.222;2023-04-27T07:35:49;15.40;99.90
12893;DHT22;6514;48.606;9.222;2023-04-27T07:38:18;15.70;99.90
12893;DHT22;6514;48.606;9.222;2023-04-27T07:40:45;15.90;99.90
12893;DHT22;6514;48.606;9.222;2023-04-27T07:43:13;16.20;99.90
12893;DHT22;6514;48.606;9.222;2023-04-27T07:45:42;16.50;99.90
12893;DHT22;6514;48.606;9.222;2023-04-27T07:48:10;16.90;99.90
12893;DHT22;6514;48.606;9.222;2023-04-27T07:50:37;17.20;99.90
12893;DHT22;6514;48.606;9.222;2023-04-27T07:53:04;17.40;99.90
12893;DHT22;6514;48.606;9.222;2023-04-27T07:55:31;17.30;99.90
12893;DHT22;6514;48.606;9.222;2023-04-27T07:57:58;17.60;99.90
12893;DHT22;6514;48.606;9.222;2023-04-27T08:00:27;17.50;99.90
12893;DHT22;6514;48.606;9.222;2023-04-27T08:02:54;17.70;99.90
12893;DHT22;6514;48.606;9.222;2023-04-27T08:05:21;18.00;99.90
12893;DHT22;6514;48.606;9.222;2023-04-27T08:07:48;18.40;99.90
12893;DHT22;6514;48.606;9.222;2023-04-27T08:10:18;18.80;99.90
12893;DHT22;6514;48.606;9.222;2023-04-27T08:12:45;19.20;99.90
12893;DHT22;6514;48.606;9.222;2023-04-27T08:15:12;19.30;99.90
12893;DHT22;6514;48.606;9.222;2023-04-27T08:17:40;19.20;99.90
12893;DHT22;6514;48.606;9.222;2023-04-27T08:20:09;19.40;99.90
12893;DHT22;6514;48.606;9.222;2023-04-27T08:22:37;19.40;99.90
12893;DHT22;6514;48.606;9.222;2023-04-27T08:25:04;19.70;99.90
12893;DHT22;6514;48.606;9.222;2023-04-27T08:27:35;19.80;99.90
12893;DHT22;6514;48.606;9.222;2023-04-27T08:30:03;19.90;99.90
12893;DHT22;6514;48.606;9.222;2023-04-27T08:32:30;20.00;99.90
12893;DHT22;6514;48.606;9.222;2023-04-27T08:34:58;20.20;99.90
12893;DHT22;6514;48.606;9.222;2023-04-27T08:37:25;20.30;99.90
12893;DHT22;6514;48.606;9.222;2023-04-27T08:39:52;20.50;99.90
12893;DHT22;6514;48.606;9.222;2023-04-27T08:42:19;20.90;99.90
12893;DHT22;6514;48.606;9.222;2023-04-27T08:44:46;21.10;99.90
12893;DHT22;6514;48.606;9.222;2023-04-27T08:47:13;21.30;99.90
12893;DHT22;6514;48.606;9.222;2023-04-27T08:49:40;21.80;99.90
12893;DHT22;6514;48.606;9.222;2023-04-27T08:52:12;22.00;99.90
12893;DHT22;6514;48.606;9.222;2023-04-27T08:54:40;22.10;99.90
12893;DHT22;6514;48.606;9.222;2023-04-27T08:57:10;22.20;99.90
12893;DHT22;6514;48.606;9.222;2023-04-27T08:59:37;21.80;99.90
12893;DHT22;6514;48.606;9.222;2023-04-27T09:02:04;22.10;99.90
12893;DHT22;6514;48.606;9.222;2023-04-27T09:04:38;22.20;99.90
12893;DHT22;6514;48.606;9.222;2023-04-27T09:07:14;22.10;99.90
12893;DHT22;6514;48.606;9.222;2023-04-27T09:09:42;22.30;99.90
12893;DHT22;6514;48.606;9.222;2023-04-27T09:12:16;22.30;99.90
12893;DHT22;6514;48.606;9.222;2023-04-27T09:14:55;22.40;99.90
12893;DHT22;6514;48.606;9.222;2023-04-27T09:17:24;22.00;99.90
12893;DHT22;6514;48.606;9.222;2023-04-27T09:20:01;22.10;99.90
12893;DHT22;6514;48.606;9.222;2023-04-27T09:22:41;21.80;99.90
12893;DHT22;6514;48.606;9.222;2023-04-27T09:25:08;22.20;99.90
12893;DHT22;6514;48.606;9.222;2023-04-27T09:27:37;22.30;99.90
12893;DHT22;6514;48.606;9.222;2023-04-27T09:30:11;22.30;99.90
12893;DHT22;6514;48.606;9.222;2023-04-27T09:32:38;22.10;99.90
12893;DHT22;6514;48.606;9.222;2023-04-27T09:35:19;22.30;99.90
12893;DHT22;6514;48.606;9.222;2023-04-27T09:37:48;22.40;99.90
12893;DHT22;6514;48.606;9.222;2023-04-27T09:40:17;22.60;99.90
12893;DHT22;6514;48.606;9.222;2023-04-27T09:42:45;22.70;99.90
12893;DHT22;6514;48.606;9.222;2023-04-27T09:45:12;22.90;99.90
12893;DHT22;6514;48.606;9.222;2023-04-27T09:47:40;22.60;99.90
12893;DHT22;6514;48.606;9.222;2023-04-27T09:50:08;22.40;99.90
12893;DHT22;6514;48.606;9.222;2023-04-27T09:52:38;22.40;99.90
12893;DHT22;6514;48.606;9.222;2023-04-27T09:55:09;22.60;99.90
12893;DHT22;6514;48.606;9.222;2023-04-27T09:57:43;22.70;99.90
12893;DHT22;6514;48.606;9.222;2023-04-27T10:00:20;23.10;99.90
12893;DHT22;6514;48.606;9.222;2023-04-27T10:03:04;23.10;99.00
12893;DHT22;6514;48.606;9.222;2023-04-27T10:05:41;23.00;98.80
12893;DHT22;6514;48.606;9.222;2023-04-27T10:08:10;23.10;99.90
12893;DHT22;6514;48.606;9.222;2023-04-27T10:10:48;23.20;99.90
12893;DHT22;6514;48.606;9.222;2023-04-27T10:13:22;23.60;99.90
12893;DHT22;6514;48.606;9.222;2023-04-27T10:15:49;23.50;99.90
12893;DHT22;6514;48.606;9.222;2023-04-27T10:18:27;23.40;99.60
12893;DHT22;6514;48.606;9.222;2023-04-27T10:20:55;23.40;98.80
12893;DHT22;6514;48.606;9.222;2023-04-27T10:23:23;23.70;99.90
12893;DHT22;6514;48.606;9.222;2023-04-27T10:25:52;23.80;99.30
12893;DHT22;6514;48.606;9.222;2023-04-27T10:28:20;23.80;98.10
12893;DHT22;6514;48.606;9.222;2023-04-27T10:30:47;23.70;99.70
12893;DHT22;6514;48.606;9.222;2023-04-27T10:33:18;23.90;99.30
12893;DHT22;6514;48.606;9.222;2023-04-27T10:35:54;24.00;99.90
12893;DHT22;6514;48.606;9.222;2023-04-27T10:38:26;24.10;98.20
12893;DHT22;6514;48.606;9.222;2023-04-27T10:40:56;24.10;99.30
12893;DHT22;6514;48.606;9.222;2023-04-27T10:43:26;24.20;99.90
12893;DHT22;6514;48.606;9.222;2023-04-27T10:45:54;24.50;99.90
12893;DHT22;6514;48.606;9.222;2023-04-27T10:48:21;24.30;99.00
12893;DHT22;6514;48.606;9.222;2023-04-27T10:50:50;24.50;99.90
12893;DHT22;6514;48.606;9.222;2023-04-27T10:53:17;24.50;98.80
12893;DHT22;6514;48.606;9.222;2023-04-27T10:55:43;24.70;99.90
12893;DHT22;6514;48.606;9.222;2023-04-27T10:58:12;25.30;99.20
12893;DHT22;6514;48.606;9.222;2023-04-27T11:00:40;25.30;94.70
12893;DHT22;6514;48.606;9.222;2023-04-27T11:03:11;25.00;99.10
12893;DHT22;6514;48.606;9.222;2023-04-27T11:05:39;24.80;97.40
12893;DHT22;6514;48.606;9.222;2023-04-27T11:08:08;24.70;98.60
12893;DHT22;6514;48.606;9.222;2023-04-27T11:10:37;24.90;96.40
12893;DHT22;6514;48.606;9.222;2023-04-27T11:13:08;24.40;97.20
12893;DHT22;6514;48.606;9.222;2023-04-27T11:15:48;23.90;96.60
12893;DHT22;6514;48.606;9.222;2023-04-27T11:18:17;23.90;98.80
12893;DHT22;6514;48.606;9.222;2023-04-27T11:20:47;23.40;97.70
12893;DHT22;6514;48.606;9.222;2023-04-27T11:23:22;23.30;98.30
12893;DHT22;6514;48.606;9.222;2023-04-27T11:25:50;23.20;99.90
12893;DHT22;6514;48.606;9.222;2023-04-27T11:28:17;23.20;99.90
12893;DHT22;6514;48.606;9.222;2023-04-27T11:30:46;23.00;99.90
12893;DHT22;6514;48.606;9.222;2023-04-27T11:33:14;22.40;99.90
12893;DHT22;6514;48.606;9.222;2023-04-27T11:35:41;22.00;99.90
12893;DHT22;6514;48.606;9.222;2023-04-27T11:38:14;21.60;99.90
12893;DHT22;6514;48.606;9.222;2023-04-27T11:40:42;21.10;99.90
12893;DHT22;6514;48.606;9.222;2023-04-27T11:43:11;20.90;99.90
12893;DHT22;6514;48.606;9.222;2023-04-27T11:45:41;20.80;99.90
12893;DHT22;6514;48.606;9.222;2023-04-27T11:48:13;20.90;99.90
12893;DHT22;6514;48.606;9.222;2023-04-27T11:50:42;21.20;99.90
12893;DHT22;6514;48.606;9.222;2023-04-27T11:53:11;21.50;99.90
12893;DHT22;6514;48.606;9.222;2023-04-27T11:55:38;22.10;99.90
12893;DHT22;6514;48.606;9.222;2023-04-27T11:58:11;22.60;99.90
12893;DHT22;6514;48.606;9.222;2023-04-27T12:00:38;22.90;99.90
12893;DHT22;6514;48.606;9.222;2023-04-27T12:03:05;22.90;99.90
12893;DHT22;6514;48.606;9.222;2023-04-27T12:05:34;22.60;99.50
12893;DHT22;6514;48.606;9.222;2023-04-27T12:08:01;22.30;97.70
12893;DHT22;6514;48.606;9.222;2023-04-27T12:10:28;22.30;99.90
12893;DHT22;6514;48.606;9.222;2023-04-27T12:12:55;22.00;99.90
12893;DHT22;6514;48.606;9.222;2023-04-27T12:15:22;21.70;99.30
12893;DHT22;6514;48.606;9.222;2023-04-27T12:17:49;21.90;99.90
12893;DHT22;6514;48.606;9.222;2023-04-27T12:20:16;22.30;99.90
12893;DHT22;6514;48.606;9.222;2023-04-27T12:22:44;22.80;99.90
12893;DHT22;6514;48.606;9.222;2023-04-27T12:25:11;23.30;97.90
12893;DHT22;6514;48.606;9.222;2023-04-27T12:27:38;24.00;97.80
12893;DHT22;6514;48.606;9.222;2023-04-27T12:30:06;24.30;97.60
12893;DHT22;6514;48.606;9.222;2023-04-27T12:32:33;24.60;97.70
12893;DHT22;6514;48.606;9.222;2023-04-27T12:35:00;24.70;95.40
12893;DHT22;6514;48.606;9.222;2023-04-27T12:37:27;24.90;97.20
12893;DHT22;6514;48.606;9.222;2023-04-27T12:39:55;25.20;98.20
12893;DHT22;6514;48.606;9.222;2023-04-27T12:42:22;24.90;95.60
12893;DHT22;6514;48.606;9.222;2023-04-27T12:44:49;24.40;94.90
12893;DHT22;6514;48.606;9.222;2023-04-27T12:47:16;24.00;94.40
12893;DHT22;6514;48.606;9.222;2023-04-27T12:49:43;23.50;97.00
12893;DHT22;6514;48.606;9.222;2023-04-27T12:52:11;23.30;95.30
12893;DHT22;6514;48.606;9.222;2023-04-27T12:54:38;22.90;95.90
12893;DHT22;6514;48.606;9.222;2023-04-27T12:57:06;22.70;97.90
12893;DHT22;6514;48.606;9.222;2023-04-27T12:59:33;22.60;96.00
12893;DHT22;6514;48.606;9.222;2023-04-27T13:02:01;22.30;97.50
12893;DHT22;6514;48.606;9.222;2023-04-27T13:04:29;22.30;99.70
12893;DHT22;6514;48.606;9.222;2023-04-27T13:06:56;22.40;97.70
12893;DHT22;6514;48.606;9.222;2023-04-27T13:09:25;22.20;98.50
12893;DHT22;6514;48.606;9.222;2023-04-27T13:11:52;21.90;99.90
12893;DHT22;6514;48.606;9.222;2023-04-27T13:14:20;21.90;99.90
12893;DHT22;6514;48.606;9.222;2023-04-27T13:16:47;21.90;99.90
12893;DHT22;6514;48.606;9.222;2023-04-27T13:19:14;21.90;99.50
12893;DHT22;6514;48.606;9.222;2023-04-27T13:21:41;21.80;98.20
12893;DHT22;6514;48.606;9.222;2023-04-27T13:24:08;21.80;97.90
12893;DHT22;6514;48.606;9.222;2023-04-27T13:26:35;21.70;98.20
12893;DHT22;6514;48.606;9.222;2023-04-27T13:29:04;21.90;96.90
12893;DHT22;6514;48.606;9.222;2023-04-27T13:31:32;22.10;97.20
12893;DHT22;6514;48.606;9.222;2023-04-27T13:33:59;22.10;99.00
12893;DHT22;6514;48.606;9.222;2023-04-27T13:36:28;22.00;99.90
12893;DHT22;6514;48.606;9.222;2023-04-27T13:38:55;21.70;99.90
12893;DHT22;6514;48.606;9.222;2023-04-27T13:41:22;21.40;99.90
12893;DHT22;6514;48.606;9.222;2023-04-27T13:43:49;21.30;99.90
12893;DHT22;6514;48.606;9.222;2023-04-27T13:46:16;21.20;99.90
12893;DHT22;6514;48.606;9.222;2023-04-27T13:48:44;21.00;99.90
12893;DHT22;6514;48.606;9.222;2023-04-27T13:51:11;20.70;99.90
12893;DHT22;6514;48.606;9.222;2023-04-27T13:53:37;20.50;99.90
12893;DHT22;6514;48.606;9.222;2023-04-27T13:56:05;20.40;99.90
12893;DHT22;6514;48.606;9.222;2023-04-27T13:58:31;20.50;99.90
12893;DHT22;6514;48.606;9.222;2023-04-27T14:00:59;20.60;99.90
12893;DHT22;6514;48.606;9.222;2023-04-27T14:03:26;20.60;99.90
12893;DHT22;6514;48.606;9.222;2023-04-27T14:05:55;20.70;99.90
12893;DHT22;6514;48.606;9.222;2023-04-27T14:08:21;20.90;99.90
12893;DHT22;6514;48.606;9.222;2023-04-27T14:10:48;20.80;99.90
12893;DHT22;6514;48.606;9.222;2023-04-27T14:13:17;21.00;99.90
12893;DHT22;6514;48.606;9.222;2023-04-27T14:15:44;20.90;99.90
12893;DHT22;6514;48.606;9.222;2023-04-27T14:18:11;20.70;99.90
12893;DHT22;6514;48.606;9.222;2023-04-27T14:20:38;20.60;99.90
12893;DHT22;6514;48.606;9.222;2023-04-27T14:23:09;20.50;99.90
12893;DHT22;6514;48.606;9.222;2023-04-27T14:25:36;20.50;99.90
12893;DHT22;6514;48.606;9.222;2023-04-27T14:28:04;20.60;99.90
12893;DHT22;6514;48.606;9.222;2023-04-27T14:30:32;20.90;99.90
12893;DHT22;6514;48.606;9.222;2023-04-27T14:33:00;21.10;99.60
12893;DHT22;6514;48.606;9.222;2023-04-27T14:35:27;21.30;99.90
12893;DHT22;6514;48.606;9.222;2023-04-27T14:37:54;21.50;99.60
12893;DHT22;6514;48.606;9.222;2023-04-27T14:40:22;21.60;99.00
12893;DHT22;6514;48.606;9.222;2023-04-27T14:42:49;21.80;99.20
12893;DHT22;6514;48.606;9.222;2023-04-27T14:45:16;22.10;99.40
12893;DHT22;6514;48.606;9.222;2023-04-27T14:47:43;22.10;99.90
12893;DHT22;6514;48.606;9.222;2023-04-27T14:50:10;22.00;99.90
12893;DHT22;6514;48.606;9.222;2023-04-27T14:52:37;21.80;99.90
12893;DHT22;6514;48.606;9.222;2023-04-27T14:55:05;21.50;99.90
12893;DHT22;6514;48.606;9.222;2023-04-27T14:57:34;21.20;99.30
12893;DHT22;6514;48.606;9.222;2023-04-27T15:00:01;21.00;99.90
12893;DHT22;6514;48.606;9.222;2023-04-27T15:02:34;20.90;99.90
12893;DHT22;6514;48.606;9.222;2023-04-27T15:05:01;20.90;99.90
12893;DHT22;6514;48.606;9.222;2023-04-27T15:07:28;21.40;99.90
12893;DHT22;6514;48.606;9.222;2023-04-27T15:09:54;22.10;99.90
12893;DHT22;6514;48.606;9.222;2023-04-27T15:12:21;22.40;97.10
12893;DHT22;6514;48.606;9.222;2023-04-27T15:14:50;22.80;99.90
12893;DHT22;6514;48.606;9.222;2023-04-27T15:17:18;23.30;99.90
12893;DHT22;6514;48.606;9.222;2023-04-27T15:19:45;23.50;97.60
12893;DHT22;6514;48.606;9.222;2023-04-27T15:22:11;23.30;96.30
12893;DHT22;6514;48.606;9.222;2023-04-27T15:24:39;23.00;99.90
12893;DHT22;6514;48.606;9.222;2023-04-27T15:27:06;22.60;99.10
12893;DHT22;6514;48.606;9.222;2023-04-27T15:29:33;22.30;99.90
12893;DHT22;6514;48.606;9.222;2023-04-27T15:32:01;22.10;99.20
12893;DHT22;6514;48.606;9.222;2023-04-27T15:34:28;21.90;99.20
12893;DHT22;6514;48.606;9.222;2023-04-27T15:36:56;21.90;99.50
12893;DHT22;6514;48.606;9.222;2023-04-27T15:39:23;21.90;98.50
12893;DHT22;6514;48.606;9.222;2023-04-27T15:41:51;22.00;99.90
12893;DHT22;6514;48.606;9.222;2023-04-27T15:44:18;21.90;99.40
12893;DHT22;6514;48.606;9.222;2023-04-27T15:46:45;21.70;98.90
12893;DHT22;6514;48.606;9.222;2023-04-27T15:49:13;21.60;99.90
12893;DHT22;6514;48.606;9.222;2023-04-27T15:51:40;21.60;99.90
12893;DHT22;6514;48.606;9.222;2023-04-27T15:54:07;21.50;99.90
12893;DHT22;6514;48.606;9.222;2023-04-27T15:56:34;21.40;99.90